Time;durP1;ratioP1;P1;durP2;ratioP2;P2;SDS_P1;SDS_P2;PMS_P1;PMS_P2;Temp;Humidity;BMP_temperature;BMP_pressure;BME280_temperature;BME280_humidity;BME280_pressure;Samples;Min_cycle;Max_cycle;Signal;HPM_P1;HPM_P2
2023/01/16 00:00:37;;;;;;;;;;;;;;;0.20;82.82;95153.91;5114149;28;1193;-50
2023/01/16 00:03:03;;;;;;;;;;;;;;;0.23;81.50;95153.72;5114419;28;1007;-50
2023/01/16 00:05:29;;;;;;;;;;;;;;;0.01;80.46;95159.47;5114396;28;1098;-50
2023/01/16 00:07:55;;;;;;;;;;;;;;;-0.25;81.14;95153.22;5114011;28;1039;-50
2023/01/16 00:10:21;;;;;;;;;;;;;;;-0.32;81.13;95158.03;5113014;28;980;-50
2023/01/16 00:12:48;;;;;;;;;;;;;;;-0.26;81.20;95157.66;5112764;28;1023;-50
2023/01/16 00:15:14;;;;;;;;;;;;;;;-0.44;80.45;95145.63;5113934;28;1909;-50
2023/01/16 00:17:40;;;;;;;;;;;;;;;-0.73;82.43;95152.69;5113891;28;1024;-50
2023/01/16 00:20:06;;;;;;;;;;;;;;;-0.74;83.53;95145.72;5114166;28;1051;-49
2023/01/16 00:22:32;;;;;;;;;;;;;;;-0.46;82.70;95147.53;5114149;28;991;-49
2023/01/16 00:24:58;;;;;;;;;;;;;;;-0.14;82.65;95160.44;5112534;28;1087;-49
2023/01/16 00:27:24;;;;;;;;;;;;;;;-0.31;81.45;95154.44;5113907;28;995;-50
2023/01/16 00:29:50;;;;;;;;;;;;;;;-0.50;81.59;95153.91;5113817;28;1022;-50
2023/01/16 00:32:17;;;;;;;;;;;;;;;-0.50;82.28;95153.91;5114014;28;1046;-49
2023/01/16 00:34:43;;;;;;;;;;;;;;;-0.63;82.89;95149.38;5113848;28;1886;-50
2023/01/16 00:37:09;;;;;;;;;;;;;;;-0.60;83.13;95141.34;5113796;28;1229;-50
2023/01/16 00:39:38;;;;;;;;;;;;;;;-0.52;82.71;95142.66;5113705;28;955;-50
2023/01/16 00:42:04;;;;;;;;;;;;;;;-0.43;82.88;95142.94;5113784;28;1039;-50
2023/01/16 00:44:30;;;;;;;;;;;;;;;-0.33;82.70;95145.00;5112792;28;1075;-49
2023/01/16 00:46:56;;;;;;;;;;;;;;;-0.33;81.62;95145.81;5113845;28;983;-49
2023/01/16 00:49:22;;;;;;;;;;;;;;;-0.54;81.25;95147.16;5113686;28;1019;-49
2023/01/16 00:51:48;;;;;;;;;;;;;;;-0.53;81.52;95130.44;5113598;28;1055;-50
2023/01/16 00:54:14;;;;;;;;;;;;;;;-0.80;82.58;95129.44;5113606;28;1984;-50
2023/01/16 00:56:40;;;;;;;;;;;;;;;-0.89;83.20;95130.00;5113307;28;1313;-50
2023/01/16 00:59:06;;;;;;;;;;;;;;;-0.86;84.26;95127.16;5114387;28;1090;-49
2023/01/16 01:01:32;;;;;;;;;;;;;;;-0.47;83.79;95124.84;5116437;28;1012;-50
2023/01/16 01:03:59;;;;;;;;;;;;;;;-0.33;83.40;95129.22;5117636;28;1028;-50
2023/01/16 01:06:25;;;;;;;;;;;;;;;-0.54;81.83;95126.16;5117568;28;1051;-50
2023/01/16 01:08:51;;;;;;;;;;;;;;;-0.82;82.68;95123.41;5117569;28;1043;-50
2023/01/16 01:11:17;;;;;;;;;;;;;;;-0.63;83.06;95124.91;5117338;28;1865;-50
2023/01/16 01:13:44;;;;;;;;;;;;;;;-0.49;82.73;95130.19;5117322;28;1077;-49
2023/01/16 01:16:10;;;;;;;;;;;;;;;-0.37;81.42;95122.47;5117506;28;1902;-50
2023/01/16 01:18:36;;;;;;;;;;;;;;;-0.40;81.02;95126.13;5117427;28;1050;-50
2023/01/16 01:21:03;;;;;;;;;;;;;;;-0.80;81.41;95124.19;5117379;28;1028;-49
2023/01/16 01:23:29;;;;;;;;;;;;;;;-0.98;82.51;95128.75;5117297;28;1171;-49
2023/01/16 01:25:55;;;;;;;;;;;;;;;-0.74;83.12;95129.97;5116783;28;968;-49
2023/01/16 01:28:21;;;;;;;;;;;;;;;-0.61;82.79;95137.03;5117077;28;1179;-50
2023/01/16 01:30:47;;;;;;;;;;;;;;;-0.53;82.92;95133.06;5116963;28;1585;-49
2023/01/16 01:33:13;;;;;;;;;;;;;;;-0.76;80.90;95131.84;5116993;28;1004;-50
2023/01/16 01:35:40;;;;;;;;;;;;;;;-0.94;82.39;95128.56;5116932;28;1909;-50
2023/01/16 01:38:06;;;;;;;;;;;;;;;-0.85;82.88;95114.91;5117008;27;1039;-50
2023/01/16 01:40:32;;;;;;;;;;;;;;;-1.08;82.40;95109.25;5116906;28;1024;-50
2023/01/16 01:42:58;;;;;;;;;;;;;;;-0.89;82.56;95111.59;5116702;28;1043;-50
2023/01/16 01:45:29;;;;;;;;;;;;;;;-0.61;83.29;95094.16;5116725;28;1020;-49
2023/01/16 01:47:55;;;;;;;;;;;;;;;-0.58;81.92;95085.25;5116858;27;971;-49
2023/01/16 01:50:23;;;;;;;;;;;;;;;-0.76;80.27;95084.59;5116639;28;1154;-49
2023/01/16 01:52:50;;;;;;;;;;;;;;;-0.82;80.76;95088.44;5116662;28;1058;-50
2023/01/16 01:55:18;;;;;;;;;;;;;;;-1.08;81.25;95082.13;5116524;28;1906;-50
2023/01/16 01:57:54;;;;;;;;;;;;;;;-0.99;82.10;95084.22;5116503;28;1218;-49
2023/01/16 02:00:22;;;;;;;;;;;;;;;-1.14;82.26;95083.34;5116764;28;936;-50
2023/01/16 02:02:53;;;;;;;;;;;;;;;-1.04;83.30;95071.38;5116361;28;1015;-50
2023/01/16 02:05:23;;;;;;;;;;;;;;;-0.82;82.93;95078.78;5116519;28;1003;-49
2023/01/16 02:07:49;;;;;;;;;;;;;;;-0.73;83.00;95085.25;5116239;28;988;-49
2023/01/16 02:10:38;;;;;;;;;;;;;;;-0.56;82.50;95086.84;5115993;28;1052;-50
2023/01/16 02:13:04;;;;;;;;;;;;;;;-0.56;82.65;95088.63;5108120;28;1177;-50
2023/01/16 02:15:30;;;;;;;;;;;;;;;-0.91;79.73;95083.75;5116251;28;1992;-49
2023/01/16 02:20:57;;;;;;;;;;;;;;;-1.24;81.79;95080.44;5116365;28;953;-50
2023/01/16 02:23:42;;;;;;;;;;;;;;;-1.25;82.73;95064.78;5116196;28;1190;-50
2023/01/16 02:26:27;;;;;;;;;;;;;;;-1.07;82.78;95062.84;5116071;28;1056;-50
2023/01/16 02:28:57;;;;;;;;;;;;;;;-0.95;82.63;95053.38;5115816;28;1027;-50
2023/01/16 02:31:23;;;;;;;;;;;;;;;-0.95;82.29;95054.22;5115916;28;1963;-49
2023/01/16 02:34:05;;;;;;;;;;;;;;;-0.92;82.08;95053.19;5115937;28;1071;-49
2023/01/16 02:36:34;;;;;;;;;;;;;;;-0.90;81.48;95061.81;5115782;28;1098;-50
2023/01/16 02:39:27;;;;;;;;;;;;;;;-1.01;80.62;95057.22;5115755;28;1845;-50
2023/01/16 02:42:16;;;;;;;;;;;;;;;-1.11;81.35;95062.19;5115866;28;1028;-49
2023/01/16 02:45:01;;;;;;;;;;;;;;;-1.16;81.19;95074.72;5107454;28;1255;-49
2023/01/16 02:47:46;;;;;;;;;;;;;;;-1.40;82.26;95063.94;5115588;28;971;-50
2023/01/16 02:50:18;;;;;;;;;;;;;;;-1.33;83.26;95056.53;5115744;28;952;-49
2023/01/16 02:52:53;;;;;;;;;;;;;;;-1.12;83.57;95055.28;5115556;28;964;-49
2023/01/16 02:55:26;;;;;;;;;;;;;;;-1.23;81.90;95047.19;5115375;28;1971;-50
2023/01/16 02:57:55;;;;;;;;;;;;;;;-0.98;82.85;95047.38;5115209;28;1116;-49
2023/01/16 03:00:22;;;;;;;;;;;;;;;-0.87;82.90;95045.91;5115518;28;983;-50
2023/01/16 03:02:48;;;;;;;;;;;;;;;-0.79;83.20;95051.50;5115177;28;1004;-49
2023/01/16 03:05:14;;;;;;;;;;;;;;;-1.04;81.62;95045.13;5115229;28;1007;-50
2023/01/16 03:07:58;;;;;;;;;;;;;;;-1.04;81.78;95047.75;5115230;28;972;-49
2023/01/16 03:10:24;;;;;;;;;;;;;;;-1.28;81.42;95031.72;5115104;28;1035;-49
2023/01/16 03:13:02;;;;;;;;;;;;;;;-1.39;83.24;95029.72;5114962;28;960;-49
2023/01/16 03:15:34;;;;;;;;;;;;;;;-1.19;83.52;95018.03;5114895;28;1991;-49
2023/01/16 03:18:00;;;;;;;;;;;;;;;-1.02;84.38;95009.16;5113803;28;1028;-49
2023/01/16 03:20:45;;;;;;;;;;;;;;;-0.72;83.55;94996.81;5113748;28;1859;-49
2023/01/16 03:23:20;;;;;;;;;;;;;;;-0.70;82.95;94990.56;5114536;28;1076;-49
2023/01/16 03:26:02;;;;;;;;;;;;;;;-1.02;80.28;94990.78;5094554;28;1035;-49
2023/01/16 03:28:31;;;;;;;;;;;;;;;-1.52;82.14;94981.56;5094579;28;973;-49
2023/01/16 03:31:08;;;;;;;;;;;;;;;-1.44;83.08;94987.22;5094247;28;1024;-49
2023/01/16 03:33:58;;;;;;;;;;;;;;;-1.14;82.79;94980.19;5094333;28;1051;-49
2023/01/16 03:36:30;;;;;;;;;;;;;;;-1.18;82.19;94987.41;5094527;28;1014;-49
2023/01/16 03:38:57;;;;;;;;;;;;;;;-1.26;82.71;94976.53;5094340;28;1056;-49
2023/01/16 03:41:25;;;;;;;;;;;;;;;-1.26;83.21;94979.16;5094258;28;1016;-49
2023/01/16 03:43:54;;;;;;;;;;;;;;;-1.24;83.09;94979.91;5094118;28;982;-49
2023/01/16 03:46:22;;;;;;;;;;;;;;;-1.06;82.94;94968.28;5094105;28;1087;-49
2023/01/16 03:48:58;;;;;;;;;;;;;;;-1.28;81.28;94963.50;5094211;28;1033;-49
2023/01/16 03:51:26;;;;;;;;;;;;;;;-1.52;82.05;94965.84;5094112;28;1039;-49
2023/01/16 03:54:13;;;;;;;;;;;;;;;-1.38;82.29;94972.91;5093929;28;1866;-49
2023/01/16 03:56:48;;;;;;;;;;;;;;;-1.38;82.96;94971.09;5093577;28;1765;-50
2023/01/16 03:59:15;;;;;;;;;;;;;;;-1.22;83.10;94975.41;5093931;28;1035;-49
2023/01/16 04:01:44;;;;;;;;;;;;;;;-1.09;82.50;94971.09;5093975;28;973;-49
2023/01/16 04:04:33;;;;;;;;;;;;;;;-1.10;82.45;94964.19;5093993;28;1036;-49
2023/01/16 04:07:03;;;;;;;;;;;;;;;-1.29;81.05;94969.72;5093756;28;1118;-49
2023/01/16 04:09:38;;;;;;;;;;;;;;;-1.52;82.00;94959.75;5093838;28;1094;-49
2023/01/16 04:12:05;;;;;;;;;;;;;;;-1.39;82.78;94961.53;5093984;28;1068;-49
2023/01/16 04:14:33;;;;;;;;;;;;;;;-1.23;82.72;94963.25;5093766;28;1995;-49
2023/01/16 04:17:00;;;;;;;;;;;;;;;-1.32;82.38;94953.31;5093700;28;1364;-49
2023/01/16 04:19:26;;;;;;;;;;;;;;;-1.71;81.63;94945.13;5093530;28;1094;-49
2023/01/16 04:21:52;;;;;;;;;;;;;;;-1.87;83.54;94953.06;5093792;28;1056;-49
2023/01/16 04:24:18;;;;;;;;;;;;;;;-1.66;84.03;94948.31;5102121;28;1223;-49
2023/01/16 04:26:44;;;;;;;;;;;;;;;-1.48;83.76;94946.38;5113798;28;1079;-49
2023/01/16 04:29:11;;;;;;;;;;;;;;;-1.38;83.16;94949.28;5113899;28;1027;-48
2023/01/16 04:31:37;;;;;;;;;;;;;;;-1.34;82.77;94942.91;5113796;28;1212;-49
2023/01/16 04:34:03;;;;;;;;;;;;;;;-1.58;81.13;94940.00;5114475;28;1910;-49
2023/01/16 04:36:30;;;;;;;;;;;;;;;-1.55;82.12;94934.59;5118154;28;972;-48
2023/01/16 04:38:57;;;;;;;;;;;;;;;-1.46;82.38;94939.28;5118232;28;1031;-49
2023/01/16 04:41:39;;;;;;;;;;;;;;;-1.31;82.38;94948.00;5118262;28;1265;-49
2023/01/16 04:44:06;;;;;;;;;;;;;;;-1.25;82.42;94944.97;5118170;28;1064;-49
2023/01/16 04:46:32;;;;;;;;;;;;;;;-1.57;80.22;94952.19;5118051;28;995;-49
2023/01/16 04:48:58;;;;;;;;;;;;;;;-1.67;80.84;94958.91;5117802;27;1135;-49
2023/01/16 04:51:25;;;;;;;;;;;;;;;-1.63;81.37;94949.91;5116741;28;1036;-49
2023/01/16 04:53:52;;;;;;;;;;;;;;;-1.74;81.88;94950.56;5118005;28;1003;-49
2023/01/16 04:56:18;;;;;;;;;;;;;;;-1.72;82.11;94950.50;5117643;28;1910;-48
2023/01/16 04:58:44;;;;;;;;;;;;;;;-1.75;82.01;94941.00;5117653;28;1107;-49
2023/01/16 05:01:10;;;;;;;;;;;;;;;-1.62;81.94;94938.50;5116482;28;1040;-49
2023/01/16 05:03:36;;;;;;;;;;;;;;;-1.67;81.07;94930.06;5117524;27;1473;-49
2023/01/16 05:06:02;;;;;;;;;;;;;;;-2.01;80.81;94926.84;5117554;28;1036;-49
2023/01/16 05:08:28;;;;;;;;;;;;;;;-2.21;82.02;94920.16;5117620;28;1012;-49
2023/01/16 05:10:54;;;;;;;;;;;;;;;-2.13;83.11;94922.31;5117676;28;1221;-48
2023/01/16 05:13:21;;;;;;;;;;;;;;;-1.83;82.85;94907.41;5117291;28;1027;-49
2023/01/16 05:15:47;;;;;;;;;;;;;;;-1.61;82.80;94908.75;5117203;28;1914;-49
2023/01/16 05:18:13;;;;;;;;;;;;;;;-1.69;81.40;94908.34;5117264;28;1054;-49
2023/01/16 05:20:40;;;;;;;;;;;;;;;-1.98;81.91;94913.56;5117466;28;964;-49
2023/01/16 05:23:08;;;;;;;;;;;;;;;-1.86;83.21;94915.47;5117236;28;1023;-49
2023/01/16 05:25:34;;;;;;;;;;;;;;;-1.57;82.80;94931.22;5117234;28;1240;-48
2023/01/16 05:28:00;;;;;;;;;;;;;;;-1.51;81.98;94924.75;5117128;28;1059;-48
2023/01/16 05:30:26;;;;;;;;;;;;;;;-1.49;82.66;94934.19;5117079;28;972;-48
2023/01/16 05:32:52;;;;;;;;;;;;;;;-1.43;81.53;94931.19;5117032;28;972;-49
2023/01/16 05:35:19;;;;;;;;;;;;;;;-1.75;80.17;94913.97;5117164;28;1988;-48
2023/01/16 05:37:45;;;;;;;;;;;;;;;-1.71;81.94;94911.06;5117146;28;956;-49
2023/01/16 05:40:11;;;;;;;;;;;;;;;-1.55;82.06;94903.13;5117040;28;1043;-49
2023/01/16 05:42:38;;;;;;;;;;;;;;;-1.36;82.00;94891.50;5116806;28;916;-49
2023/01/16 05:45:04;;;;;;;;;;;;;;;-1.25;82.18;94897.75;5116833;28;1050;-49
2023/01/16 05:47:30;;;;;;;;;;;;;;;-1.32;80.80;94900.84;5116535;28;1219;-49
2023/01/16 05:49:58;;;;;;;;;;;;;;;-1.71;80.96;94894.50;5116706;28;1047;-49
2023/01/16 05:52:25;;;;;;;;;;;;;;;-1.95;82.14;94887.19;5116821;28;1050;-48
2023/01/16 05:54:51;;;;;;;;;;;;;;;-1.88;83.09;94885.84;5116717;28;1983;-48
2023/01/16 05:57:18;;;;;;;;;;;;;;;-1.54;83.11;94886.44;5116590;27;1221;-49
2023/01/16 05:59:47;;;;;;;;;;;;;;;-1.38;83.24;94895.03;5116614;27;1055;-49
2023/01/16 06:02:13;;;;;;;;;;;;;;;-1.27;83.00;94893.53;5116508;28;1027;-49
2023/01/16 06:04:39;;;;;;;;;;;;;;;-1.35;83.03;94894.00;5116379;28;1076;-49
2023/01/16 06:07:05;;;;;;;;;;;;;;;-1.35;81.59;94904.50;5115421;28;984;-49
2023/01/16 06:09:31;;;;;;;;;;;;;;;-1.52;82.02;94904.69;5116263;28;1082;-49
2023/01/16 06:11:57;;;;;;;;;;;;;;;-1.45;82.43;94893.75;5116376;28;1030;-49
2023/01/16 06:14:23;;;;;;;;;;;;;;;-1.17;82.32;94892.03;5116055;28;1906;-49
2023/01/16 06:16:49;;;;;;;;;;;;;;;-1.00;82.32;94894.41;5116184;28;1019;-49
2023/01/16 06:19:16;;;;;;;;;;;;;;;-1.11;79.95;94901.28;5114930;28;1044;-50
2023/01/16 06:21:42;;;;;;;;;;;;;;;-1.19;80.97;94888.66;5115060;28;968;-48
2023/01/16 06:24:08;;;;;;;;;;;;;;;-1.04;80.71;94881.59;5115966;28;1074;-48
2023/01/16 06:26:34;;;;;;;;;;;;;;;-0.80;80.66;94884.41;5116040;28;1071;-48
2023/01/16 06:29:00;;;;;;;;;;;;;;;-0.85;79.49;94871.59;5115964;28;1240;-48
2023/01/16 06:31:27;;;;;;;;;;;;;;;-0.94;80.17;94866.94;5115992;28;1019;-48
2023/01/16 06:33:53;;;;;;;;;;;;;;;-0.61;80.15;94873.56;5116104;28;1048;-48
2023/01/16 06:36:19;;;;;;;;;;;;;;;-0.01;79.13;94866.97;5115841;28;1897;-48
2023/01/16 06:38:45;;;;;;;;;;;;;;;1.49;73.52;94865.19;5114687;28;972;-48
2023/01/16 06:41:11;;;;;;;;;;;;;;;2.29;68.07;94861.81;5115785;28;1040;-49
2023/01/16 06:43:37;;;;;;;;;;;;;;;2.00;69.37;94864.88;5115693;28;1014;-49
2023/01/16 06:46:03;;;;;;;;;;;;;;;2.15;69.86;94873.44;5115581;28;1961;-49
2023/01/16 06:48:31;;;;;;;;;;;;;;;2.34;69.15;94872.88;5115708;28;1035;-49
2023/01/16 06:50:58;;;;;;;;;;;;;;;2.93;67.96;94875.28;5115665;28;1019;-48
2023/01/16 06:53:25;;;;;;;;;;;;;;;2.66;68.17;94878.28;5115502;28;1060;-49
2023/01/16 06:55:51;;;;;;;;;;;;;;;2.59;69.10;94881.53;5115423;28;1909;-48
2023/01/16 06:58:17;;;;;;;;;;;;;;;2.63;69.53;94888.25;5114705;28;1222;-49
2023/01/16 07:00:43;;;;;;;;;;;;;;;1.93;71.82;94890.03;5115189;28;998;-49
2023/01/16 07:03:09;;;;;;;;;;;;;;;1.34;74.50;94885.59;5115465;28;964;-49
2023/01/16 07:05:35;;;;;;;;;;;;;;;0.90;76.58;94879.94;5115315;28;995;-49
2023/01/16 07:08:01;;;;;;;;;;;;;;;0.83;77.33;94875.22;5114091;28;1051;-49
2023/01/16 07:10:28;;;;;;;;;;;;;;;0.73;78.30;94890.81;5115017;28;1047;-48
2023/01/16 07:12:54;;;;;;;;;;;;;;;0.61;79.17;94878.50;5115116;27;976;-49
2023/01/16 07:23:44;;;;;;;;;;;;;;;0.94;77.83;94862.97;5114594;28;1064;-49
2023/01/16 07:26:10;;;;;;;;;;;;;;;1.20;77.66;94867.34;5114962;28;1055;-49
2023/01/16 07:28:37;;;;;;;;;;;;;;;1.39;77.39;94880.00;5114819;28;1011;-48
2023/01/16 07:31:04;;;;;;;;;;;;;;;1.33;77.71;94868.13;5114958;28;1226;-49
2023/01/16 07:33:30;;;;;;;;;;;;;;;1.39;77.88;94861.56;5114668;28;1023;-49
2023/01/16 07:35:56;;;;;;;;;;;;;;;1.13;78.79;94862.47;5114610;28;1908;-49
2023/01/16 07:38:22;;;;;;;;;;;;;;;1.08;79.37;94851.47;5114541;28;1033;-49
2023/01/16 07:40:48;;;;;;;;;;;;;;;1.30;78.97;94853.34;5113650;28;1094;-49
2023/01/16 07:43:14;;;;;;;;;;;;;;;1.34;79.21;94853.97;5114722;28;1042;-49
2023/01/16 07:45:40;;;;;;;;;;;;;;;1.24;80.13;94852.97;5114565;28;1122;-49
2023/01/16 07:48:06;;;;;;;;;;;;;;;1.17;80.24;94844.66;5114637;28;960;-48
2023/01/16 07:50:32;;;;;;;;;;;;;;;1.25;80.37;94852.88;5114425;28;989;-49
2023/01/16 07:52:58;;;;;;;;;;;;;;;1.43;80.47;94852.47;5114300;28;1616;-49
2023/01/16 07:55:25;;;;;;;;;;;;;;;1.42;81.70;94848.16;5114421;28;2002;-49
2023/01/16 08:01:50;;;;;;;;;;;;;;;1.66;80.82;94838.41;5112226;28;1175;-49
2023/01/16 08:04:16;;;;;;;;;;;;;;;1.75;80.50;94840.38;5114338;28;1035;-49
2023/01/16 08:06:44;;;;;;;;;;;;;;;1.74;80.67;94841.31;5114155;28;1032;-49
2023/01/16 08:09:11;;;;;;;;;;;;;;;1.88;80.22;94842.09;5113402;28;1132;-49
2023/01/16 08:11:38;;;;;;;;;;;;;;;1.91;80.22;94831.31;5111451;28;1479;-49
2023/01/16 08:14:05;;;;;;;;;;;;;;;1.75;81.01;94843.00;5114040;28;1189;-49
2023/01/16 08:16:31;;;;;;;;;;;;;;;1.64;80.78;94837.69;5114125;28;1910;-49
2023/01/16 08:18:58;;;;;;;;;;;;;;;1.42;82.61;94834.97;5114167;28;1116;-48
2023/01/16 08:21:24;;;;;;;;;;;;;;;1.44;82.40;94833.06;5114077;28;1007;-49
2023/01/16 08:23:50;;;;;;;;;;;;;;;1.30;81.89;94826.19;5113611;28;1015;-49
2023/01/16 08:26:17;;;;;;;;;;;;;;;1.37;82.38;94824.78;5113905;28;1245;-49
2023/01/16 08:28:43;;;;;;;;;;;;;;;1.35;82.42;94832.78;5114004;28;1542;-50
2023/01/16 08:31:11;;;;;;;;;;;;;;;1.20;83.13;94819.94;5113853;28;1008;-49
2023/01/16 08:33:38;;;;;;;;;;;;;;;1.28;82.57;94815.75;5113641;28;1124;-50
2023/01/16 08:36:05;;;;;;;;;;;;;;;1.42;83.16;94819.16;5113772;28;1906;-49
2023/01/16 08:38:31;;;;;;;;;;;;;;;1.53;82.98;94814.78;5113819;28;1018;-49
2023/01/16 08:40:57;;;;;;;;;;;;;;;1.61;81.86;94811.56;5113731;28;1055;-49
2023/01/16 08:51:54;;;;;;;;;;;;;;;2.04;81.59;94803.03;5113652;28;912;-49
2023/01/16 08:54:20;;;;;;;;;;;;;;;2.22;80.75;94798.16;5112724;28;1898;-49
2023/01/16 08:56:46;;;;;;;;;;;;;;;2.26;80.69;94799.59;5113286;28;1205;-49
2023/01/16 08:59:13;;;;;;;;;;;;;;;2.52;78.78;94791.41;5113739;28;1024;-48
2023/01/16 09:01:41;;;;;;;;;;;;;;;2.91;78.64;94787.41;5113381;28;1215;-49
2023/01/16 09:04:08;;;;;;;;;;;;;;;3.04;77.49;94791.72;5113599;28;1039;-49
2023/01/16 09:06:35;;;;;;;;;;;;;;;3.11;76.97;94777.03;5113434;28;1066;-49
2023/01/16 09:09:05;;;;;;;;;;;;;;;3.15;76.98;94783.78;5113764;28;1016;-49
2023/01/16 09:14:16;;;;;;;;;;;;;;;3.52;75.85;94763.06;5113488;28;1906;-50
2023/01/16 09:16:43;;;;;;;;;;;;;;;3.20;78.04;94755.16;5113113;28;1073;-50
2023/01/16 09:19:09;;;;;;;;;;;;;;;3.23;77.55;94759.38;5113493;28;1099;-50
2023/01/16 09:21:35;;;;;;;;;;;;;;;3.16;77.66;94759.00;5116600;28;1054;-49
2023/01/16 09:24:02;;;;;;;;;;;;;;;2.86;78.24;94744.69;5117220;28;1141;-50
2023/01/16 09:26:28;;;;;;;;;;;;;;;2.85;79.42;94758.03;5116697;28;1511;-50
2023/01/16 09:28:54;;;;;;;;;;;;;;;2.85;79.88;94750.94;5116989;28;1090;-49
2023/01/16 09:31:20;;;;;;;;;;;;;;;2.96;80.19;94744.81;5117264;28;1039;-50
2023/01/16 09:33:48;;;;;;;;;;;;;;;3.18;78.87;94738.59;5117241;28;1060;-49
2023/01/16 09:36:14;;;;;;;;;;;;;;;3.32;78.54;94735.66;5116792;28;1917;-50
2023/01/16 09:38:40;;;;;;;;;;;;;;;3.88;76.60;94723.06;5116906;28;1035;-50
2023/01/16 09:41:09;;;;;;;;;;;;;;;4.26;75.89;94711.00;5116903;28;1074;-50
2023/01/16 09:43:40;;;;;;;;;;;;;;;4.01;74.58;94722.88;5116697;28;968;-50
2023/01/16 09:46:09;;;;;;;;;;;;;;;4.00;75.79;94723.84;5116761;28;1251;-50
2023/01/16 09:48:44;;;;;;;;;;;;;;;4.26;74.33;94721.59;5116599;28;1020;-50
2023/01/16 09:51:14;;;;;;;;;;;;;;;4.13;74.05;94708.56;5116712;28;1098;-49
2023/01/16 09:59:29;;;;;;;;;;;;;;;3.76;77.79;94685.31;5096605;28;1280;-50
2023/01/16 10:02:00;;;;;;;;;;;;;;;4.01;76.38;94681.38;5116354;28;1119;-50
2023/01/16 10:04:28;;;;;;;;;;;;;;;4.03;76.02;94668.84;5116356;28;961;-50
2023/01/16 10:07:02;;;;;;;;;;;;;;;4.05;75.89;94658.97;5116099;28;1067;-50
2023/01/16 10:09:31;;;;;;;;;;;;;;;4.19;74.73;94656.94;5116487;28;1014;-49
2023/01/16 10:12:01;;;;;;;;;;;;;;;4.45;73.43;94650.19;5116227;28;1001;-50
2023/01/16 10:14:38;;;;;;;;;;;;;;;4.41;74.43;94645.31;5116083;28;1905;-50
2023/01/16 10:17:19;;;;;;;;;;;;;;;4.44;75.02;94645.00;5115861;28;1142;-50
2023/01/16 10:20:05;;;;;;;;;;;;;;;4.41;75.67;94629.41;5116140;28;1032;-50
2023/01/16 10:34:53;;;;;;;;;;;;;;;4.80;74.11;94587.94;5173348;27;1238;-49
2023/01/16 10:37:21;;;;;;;;;;;;;;;4.63;74.42;94575.38;5141144;27;1258;-49
2023/01/16 10:39:47;;;;;;;;;;;;;;;4.48;76.28;94562.56;5152378;27;1516;-49
2023/01/16 10:50:29;;;;;;;;;;;;;;;5.21;75.65;94553.28;5151948;27;1075;-49
2023/01/16 10:52:56;;;;;;;;;;;;;;;5.23;75.71;94544.22;5152569;27;1000;-50
2023/01/16 10:55:22;;;;;;;;;;;;;;;5.55;74.85;94536.88;5151822;27;1053;-49
2023/01/16 10:57:51;;;;;;;;;;;;;;;6.24;73.83;94543.53;5164881;27;1228;-49
2023/01/16 11:00:19;;;;;;;;;;;;;;;7.40;69.43;94528.41;5172584;27;1116;-49
2023/01/16 11:02:46;;;;;;;;;;;;;;;8.07;66.90;94534.91;5172803;27;1902;-50
2023/01/16 11:05:22;;;;;;;;;;;;;;;8.47;65.44;94528.03;5172751;27;961;-50
2023/01/16 11:07:51;;;;;;;;;;;;;;;8.63;63.21;94519.25;5172419;27;1214;-49
2023/01/16 11:10:17;;;;;;;;;;;;;;;9.08;62.58;94512.59;5172525;27;1015;-50
2023/01/16 11:18:31;;;;;;;;;;;;;;;9.46;60.55;94495.03;5172070;27;1080;-50
2023/01/16 11:21:12;;;;;;;;;;;;;;;9.37;61.06;94498.72;5172300;27;1048;-48
2023/01/16 11:23:41;;;;;;;;;;;;;;;9.29;60.63;94491.56;5172328;27;2017;-49
2023/01/16 11:26:07;;;;;;;;;;;;;;;9.32;60.77;94485.06;5172311;27;1003;-49
2023/01/16 11:28:34;;;;;;;;;;;;;;;9.36;60.55;94479.22;5171894;27;1039;-50
2023/01/16 11:31:02;;;;;;;;;;;;;;;9.44;59.81;94481.03;5166871;27;1596;-50
2023/01/16 11:33:39;;;;;;;;;;;;;;;9.46;58.57;94471.03;5148656;27;1099;-49
2023/01/16 11:36:07;;;;;;;;;;;;;;;9.56;59.54;94468.16;5137356;27;1080;-49
2023/01/16 11:38:38;;;;;;;;;;;;;;;9.56;58.45;94473.50;5136947;27;1369;-49
2023/01/16 11:41:07;;;;;;;;;;;;;;;9.63;58.36;94462.97;5137371;27;1000;-49
2023/01/16 11:46:38;;;;;;;;;;;;;;;10.30;55.78;94454.47;5137135;27;1106;-49
2023/01/16 11:49:15;;;;;;;;;;;;;;;10.27;55.51;94466.34;5136748;27;1476;-49
2023/01/16 12:05:53;;;;;;;;;;;;;;;9.88;56.49;94413.78;5131777;27;1211;-50
2023/01/16 12:07:38;;;;;;;;;;;;;;;9.85;56.16;94419.50;5131496;27;1386;-50
2023/01/16 12:10:19;;;;;;;;;;;;;;;9.88;56.23;94419.13;5116975;28;1367;-50
2023/01/16 12:15:54;;;;;;;;;;;;;;;9.89;56.96;94399.47;5131374;27;1099;-50
2023/01/16 12:18:39;;;;;;;;;;;;;;;9.71;56.49;94399.72;5124937;28;1278;-50
2023/01/16 12:21:21;;;;;;;;;;;;;;;9.73;57.46;94392.38;5110965;28;1012;-50
2023/01/16 12:23:47;;;;;;;;;;;;;;;9.63;57.48;94390.91;5111416;28;980;-49
2023/01/16 12:26:19;;;;;;;;;;;;;;;9.52;57.03;94381.44;5110706;28;970;-50
2023/01/16 12:29:05;;;;;;;;;;;;;;;9.47;57.05;94367.81;5120384;28;1352;-49
2023/01/16 12:31:48;;;;;;;;;;;;;;;9.48;57.63;94356.13;5110463;28;1543;-49
2023/01/16 12:34:30;;;;;;;;;;;;;;;9.50;57.18;94346.09;5110644;28;1015;-50
2023/01/16 12:37:05;;;;;;;;;;;;;;;9.47;57.79;94338.47;5110796;28;1028;-50
2023/01/16 12:39:31;;;;;;;;;;;;;;;9.38;57.54;94338.47;5110321;28;1075;-50
2023/01/16 12:45:00;;;;;;;;;;;;;;;9.37;58.39;94333.31;5110379;28;1056;-50
2023/01/16 12:47:35;;;;;;;;;;;;;;;9.40;58.13;94327.63;5110169;28;1020;-50
2023/01/16 12:50:21;;;;;;;;;;;;;;;9.37;58.12;94325.31;5109999;28;1126;-50
2023/01/16 12:53:14;;;;;;;;;;;;;;;9.39;58.77;94326.00;5110202;28;1985;-50
2023/01/16 12:55:55;;;;;;;;;;;;;;;9.37;58.21;94328.81;5107238;28;1823;-49
2023/01/16 12:58:32;;;;;;;;;;;;;;;9.33;57.83;94342.66;5109824;28;1119;-50
2023/01/16 13:01:08;;;;;;;;;;;;;;;9.37;59.17;94335.97;5113316;28;1593;-51
2023/01/16 13:03:41;;;;;;;;;;;;;;;9.42;59.88;94340.81;5128898;27;1241;-50
2023/01/16 13:06:12;;;;;;;;;;;;;;;9.44;58.91;94342.28;5116721;28;1075;-50
2023/01/16 13:08:52;;;;;;;;;;;;;;;9.46;58.30;94336.78;5109270;28;1174;-50
2023/01/16 13:14:10;;;;;;;;;;;;;;;9.38;58.27;94333.13;5096173;28;1918;-50
2023/01/16 13:16:40;;;;;;;;;;;;;;;9.33;58.05;94327.53;5096356;28;1032;-50
2023/01/16 13:19:12;;;;;;;;;;;;;;;9.25;57.64;94329.38;5095910;28;1104;-50
2023/01/16 13:21:45;;;;;;;;;;;;;;;9.26;57.90;94315.88;5096049;28;953;-50
2023/01/16 13:24:16;;;;;;;;;;;;;;;9.30;58.59;94306.50;5096217;28;1056;-50
2023/01/16 13:26:45;;;;;;;;;;;;;;;9.33;58.39;94318.66;5095950;28;1056;-51
2023/01/16 13:29:22;;;;;;;;;;;;;;;9.26;58.03;94301.69;5095662;28;1120;-50
2023/01/16 13:31:53;;;;;;;;;;;;;;;9.29;58.54;94309.34;5096106;28;992;-50
2023/01/16 13:34:25;;;;;;;;;;;;;;;9.25;58.66;94297.38;5095807;28;1021;-50
2023/01/16 13:37:03;;;;;;;;;;;;;;;9.24;58.94;94293.03;5095724;28;1092;-50
2023/01/16 13:39:47;;;;;;;;;;;;;;;9.15;58.44;94282.41;5095265;28;1913;-50
2023/01/16 13:42:14;;;;;;;;;;;;;;;9.11;58.44;94281.09;5095622;28;1107;-49
2023/01/16 13:47:30;;;;;;;;;;;;;;;9.01;58.88;94263.63;5095677;28;949;-50
2023/01/16 13:50:08;;;;;;;;;;;;;;;8.98;58.31;94268.31;5094109;28;1074;-50
2023/01/16 13:52:37;;;;;;;;;;;;;;;8.99;58.62;94275.31;5095562;28;1981;-50
2023/01/16 13:55:06;;;;;;;;;;;;;;;8.96;58.76;94269.50;5095556;28;980;-50
2023/01/16 13:57:32;;;;;;;;;;;;;;;8.97;58.24;94265.81;5095705;28;1225;-49
2023/01/16 14:00:00;;;;;;;;;;;;;;;8.92;58.35;94269.00;5095215;28;1259;-50
2023/01/16 14:02:35;;;;;;;;;;;;;;;8.97;58.54;94271.13;5110557;28;1543;-51
2023/01/16 14:05:20;;;;;;;;;;;;;;;8.97;58.99;94271.13;5115877;28;1018;-50
2023/01/16 14:10:41;;;;;;;;;;;;;;;9.03;59.64;94278.47;5115458;28;1047;-50
2023/01/16 14:13:26;;;;;;;;;;;;;;;9.02;60.12;94270.63;5115395;28;1927;-50
2023/01/16 14:18:43;;;;;;;;;;;;;;;9.00;58.28;94276.13;5110161;28;1253;-50
2023/01/16 14:21:12;;;;;;;;;;;;;;;8.99;58.43;94274.47;5094954;28;1051;-51
2023/01/16 14:26:38;;;;;;;;;;;;;;;9.06;58.19;94270.09;5094904;28;976;-50
2023/01/16 14:29:14;;;;;;;;;;;;;;;8.98;58.24;94267.47;5094571;28;1186;-50
2023/01/16 14:31:42;;;;;;;;;;;;;;;8.95;58.33;94259.81;5094646;28;1103;-50
2023/01/16 14:34:15;;;;;;;;;;;;;;;8.95;59.94;94262.50;5094823;28;1910;-50
2023/01/16 14:36:44;;;;;;;;;;;;;;;8.91;59.25;94261.19;5094609;28;1020;-51
2023/01/16 14:39:27;;;;;;;;;;;;;;;8.74;58.22;94239.91;5094349;28;1115;-50
2023/01/16 14:56:15;;;;;;;;;;;;;;;8.69;60.30;94215.63;5094285;28;1072;-50
2023/01/16 14:58:45;;;;;;;;;;;;;;;8.62;59.64;94214.66;5093829;28;1044;-50
2023/01/16 15:04:01;;;;;;;;;;;;;;;8.54;60.38;94209.34;5114482;28;1237;-51
2023/01/16 15:06:33;;;;;;;;;;;;;;;8.49;61.52;94211.69;5114505;28;949;-50